Bergland, MI (49910)

9:02 AM EST on February 25, 2017 (GMT -0500)
Bergland Bay Bar | | Change Station

Elev 1299 ft 46.59 °N, 89.57 °W | Updated 2 seconds ago

Snow
Snow
14.9 °F
Feels Like 15 °F
N
2.9
Wind Variable Wind from NNW
Gusts 6.0 mph

Today
High -- | Low -- °F
--% Chance of Precip.
Yesterday
High -- | Low -- °F
Precip. -- in
Pressure 29.78 in
Visibility 1.8 miles
Clouds Overcast 1400 ft
Windchill 15 °F
Dew Point 13 °F
Humidity 92%
Rainfall 0.00 in
Snow Depth Not available.
7:44 AM 6:38 PM
Waning Crescent, 1% visible
METAR KIWD 251356Z AUTO 32014KT 1 3/4SM -SN BR OVC014 M09/M11 A2971 RMK AO2 SLP084 P0000 T10891111 FZRANO
Pressure 29.78 in
Visibility 1.8 miles
Clouds Overcast 1400 ft
Windchill 15 °F
Dew Point 13 °F
Humidity 92%
Rainfall 0.00 in
Snow Depth Not available.
7:44 AM 6:38 PM
Waning Crescent, 1% visible
METAR KIWD 251356Z AUTO 32014KT 1 3/4SM -SN BR OVC014 M09/M11 A2971 RMK AO2 SLP084 P0000 T10891111 FZRANO

Get Your Daily Forecast Email!

Thanks for signing up!

Be on the lookout for a verification email in your inbox.

You'll start receiving the daily forecast at 8 AM.

×

10-Day Weather Forecast

Almanac

Astronomy

Feb. 25, 2017 Rise Set
Actual Time
Civil Twilight
Nautical Twilight
Astronomical Twilight
Moon
Length of Visible Light
Length of Day
Tomorrow will be .
, % of the Moon is Illuminated

Today's Extremes

State Highs State Lows

Community

WunderPhotos

Upload Photos

1,962,540 photos uploaded!

WunderBlog® & News

Nearby

Air Quality

  Air Quality AQ Index Pollutant
Not available.

Snow Depth

Station Depth Elevation

Earthquake Activity

City Distance Mag. Time & Date
Minimum magnitude displayed is 2.5.

Coastal Water Temperatures

Place Temperature

Stations

Nearby Weather Stations

Station Location Temp. Windchill Dew Point Humidity Wind Precip. Elev Updated Type
                   

Watches & Warnings

There are currently no watches in effect.